»·PEaware :: SWA5150 KSJC-KBUR

SWA5150 :: KSJC-KBUR

FLIGHT INFORMATION

Flight Status: Arrived
Operator:
Southwest Airlines
More flights by this operator :: More flights under this callsign
Pilot: Anonymous 17686 (17686)
Aircraft: BOEING 737-200
(B732)
More flights by this aircraft type
Origin: KSJC Mineta San Jose Intl
United States
Destination: KBUR Bob Hope-Burbank
United States
More flights between these airports :: More routes between these airports
Route: +SJC2 MOONY AVE FERN7
File this flight plan on PilotEdge
Remarks: Still green on the -200 series of this craft
Altitude:
(Current/Filed)
29,000ft
Speed:
(Current/Filed)
450kts
Departed: 05-Oct-18 05:30 PM
Arrived: 05-Oct-18 06:15 PM
Distance/Time
Traveled:
258nm/0:45
Distance/Time
To Go:
Arrived

Flight Plot

Page will automatically refresh every two minutes.

Flight plan parsing failed; only flown route is shown


Map Options




Map Legend


Flown Route
Filed Route
Departure Airport
Arrival Airport
Navaid (VOR, NDB)
Fix

Horizontal Profiles

Position Reports

Time Latitude Longitude Heading Altitude Ground
Speed
05-Oct-18 17:02 37.364336 -121.924618 48 71ft 0kts
05-Oct-18 17:03 37.364336 -121.924618 48 71ft 0kts
05-Oct-18 17:04 37.364336 -121.924618 48 71ft 0kts
05-Oct-18 17:05 37.364336 -121.924618 48 71ft 0kts
05-Oct-18 17:06 37.364336 -121.924618 48 71ft 0kts
05-Oct-18 17:07 37.364336 -121.924618 48 71ft 0kts
05-Oct-18 17:08 37.364336 -121.924618 48 71ft 0kts
05-Oct-18 17:09 37.364336 -121.924618 48 71ft 0kts
05-Oct-18 17:10 37.364336 -121.924618 48 71ft 0kts
05-Oct-18 17:11 37.364336 -121.924618 48 71ft 0kts
05-Oct-18 17:12 37.364336 -121.924618 48 71ft 0kts
05-Oct-18 17:13 37.364336 -121.924618 48 71ft 0kts
05-Oct-18 17:14 37.364336 -121.924618 48 71ft 0kts
05-Oct-18 17:15 37.364336 -121.924618 48 71ft 0kts
05-Oct-18 17:16 37.364336 -121.924618 48 71ft 0kts
05-Oct-18 17:17 37.364336 -121.924618 48 71ft 0kts
05-Oct-18 17:18 37.364336 -121.924618 48 71ft 0kts
05-Oct-18 17:19 37.364336 -121.924618 48 71ft 0kts
05-Oct-18 17:20 37.364336 -121.924618 48 71ft 0kts
05-Oct-18 17:21 37.364246 -121.924746 48 71ft 2kts
05-Oct-18 17:22 37.363990 -121.925367 99 71ft 2kts
05-Oct-18 17:23 37.364134 -121.925689 139 71ft 0kts
05-Oct-18 17:24 37.364134 -121.925689 139 71ft 0kts
05-Oct-18 17:25 37.364134 -121.925689 139 71ft 0kts
05-Oct-18 17:26 37.362234 -121.923604 138 71ft 19kts
05-Oct-18 17:27 37.357825 -121.918766 139 71ft 19kts
05-Oct-18 17:28 37.354148 -121.914857 136 71ft 14kts
05-Oct-18 17:29 37.352994 -121.914508 231 71ft 0kts
05-Oct-18 17:30 37.352994 -121.914508 231 71ft 0kts
05-Oct-18 17:31 37.352940 -121.914593 231 71ft 4kts
05-Oct-18 17:32 37.360285 -121.924110 318 71ft 135kts
05-Oct-18 17:33 37.396052 -121.962065 319 2395ft 197kts
05-Oct-18 17:34 37.436544 -121.937201 88 5251ft 256kts
05-Oct-18 17:35 37.397842 -121.853809 136 8213ft 295kts
05-Oct-18 17:36 37.333911 -121.781050 137 10361ft 345kts
05-Oct-18 17:37 37.260469 -121.698454 137 13055ft 363kts
05-Oct-18 17:38 37.183494 -121.612475 137 15429ft 380kts
05-Oct-18 17:39 37.103314 -121.523098 137 17528ft 394kts
05-Oct-18 17:40 37.020687 -121.430282 137 19478ft 407kts
05-Oct-18 17:41 36.934226 -121.336480 138 21480ft 417kts
05-Oct-18 17:42 36.844715 -121.241447 138 23109ft 429kts
05-Oct-18 17:43 36.753126 -121.143185 138 24544ft 440kts
05-Oct-18 17:44 36.659503 -121.042797 139 25813ft 450kts
05-Oct-18 17:45 36.565242 -120.942051 139 27451ft 445kts
05-Oct-18 17:46 36.469809 -120.840420 139 28397ft 457kts
05-Oct-18 17:47 36.372354 -120.737008 139 29045ft 472kts
05-Oct-18 17:48 36.269812 -120.628643 139 29044ft 498kts
05-Oct-18 17:49 36.162144 -120.515309 139 29038ft 516kts
05-Oct-18 17:50 36.052337 -120.400113 139 29043ft 525kts
05-Oct-18 17:51 35.940794 -120.283143 140 29046ft 530kts
05-Oct-18 17:52 35.827915 -120.166608 140 29029ft 531kts
05-Oct-18 17:53 35.715123 -120.049681 140 29030ft 530kts
05-Oct-18 17:54 35.602560 -119.936588 148 29026ft 522kts
05-Oct-18 17:55 35.482799 -119.837584 145 29027ft 519kts
05-Oct-18 17:56 35.364596 -119.736571 145 29029ft 518kts
05-Oct-18 17:57 35.247031 -119.636336 145 29021ft 517kts
05-Oct-18 17:58 35.129055 -119.536083 145 29023ft 517kts
05-Oct-18 17:59 35.011080 -119.436154 145 29023ft 517kts
05-Oct-18 18:00 34.894214 -119.337506 146 28988ft 493kts
05-Oct-18 18:01 34.787903 -119.248777 146 26933ft 454kts
05-Oct-18 18:02 34.688378 -119.164983 145 23947ft 412kts
05-Oct-18 18:03 34.602399 -119.090909 145 23960ft 371kts
05-Oct-18 18:04 34.513727 -119.015147 145 21734ft 396kts
05-Oct-18 18:05 34.426084 -118.940466 145 19524ft 378kts
05-Oct-18 18:06 34.341583 -118.868686 149 15751ft 364kts
05-Oct-18 18:07 34.254987 -118.815427 169 12362ft 341kts
05-Oct-18 18:08 34.192760 -118.867149 270 10015ft 281kts
05-Oct-18 18:09 34.244485 -118.913445 18 7190ft 278kts
05-Oct-18 18:10 34.264150 -118.833650 111 5027ft 282kts
05-Oct-18 18:11 34.237554 -118.750086 112 4144ft 244kts
05-Oct-18 18:12 34.214909 -118.675599 111 4003ft 235kts
05-Oct-18 18:13 34.200629 -118.597171 92 3996ft 245kts
05-Oct-18 18:14 34.200647 -118.518742 91 3266ft 230kts
05-Oct-18 18:15 34.199010 -118.444435 92 2334ft 195kts
05-Oct-18 18:16 34.198461 -118.388803 94 1051ft 136kts
05-Oct-18 18:17 34.197719 -118.350815 89 786ft 24kts
05-Oct-18 18:18 34.197355 -118.350129 183 786ft 0kts
05-Oct-18 18:19 34.197200 -118.350142 183 786ft 0kts

Navigation Log

Ident Type
Flight plan parsing failed, navigation log unavailable